createdAt,value
2017-12-01T00:00:15.990Z,29.33
2017-12-01T00:02:44.875Z,26.25
2017-12-01T00:05:14.792Z,27.08
2017-12-01T00:07:44.458Z,24.77
2017-12-01T00:10:13.756Z,25.77
2017-12-01T00:12:42.694Z,23.17
2017-12-01T00:15:12.613Z,22.70
2017-12-01T00:17:41.523Z,21.55
2017-12-01T00:20:11.032Z,23.00
2017-12-01T00:22:40.304Z,22.80
2017-12-01T00:25:11.120Z,23.52
2017-12-01T00:27:40.816Z,25.85
2017-12-01T00:30:11.977Z,25.00
2017-12-01T00:32:41.689Z,24.00
2017-12-01T00:35:11.781Z,23.35
2017-12-01T00:37:40.649Z,21.92
2017-12-01T00:40:10.239Z,24.27
2017-12-01T00:42:39.172Z,23.55
2017-12-01T00:45:09.572Z,23.10
2017-12-01T00:47:38.480Z,22.90
2017-12-01T00:50:07.524Z,23.35
2017-12-01T00:52:36.396Z,24.10
2017-12-01T00:55:06.949Z,24.35
2017-12-01T00:57:35.823Z,25.37
2017-12-01T01:00:12.720Z,26.40
2017-12-01T01:02:41.627Z,28.75
2017-12-01T01:05:11.188Z,27.62
2017-12-01T01:07:40.920Z,27.27
2017-12-01T01:10:10.758Z,29.10
2017-12-01T01:12:39.649Z,29.73
2017-12-01T01:15:09.767Z,28.10
2017-12-01T01:17:38.657Z,30.77
2017-12-01T01:20:08.006Z,32.38
2017-12-01T01:22:38.261Z,32.17
2017-12-01T01:25:08.021Z,33.25
2017-12-01T01:27:37.278Z,33.50
2017-12-01T01:30:10.030Z,33.40
2017-12-01T01:32:39.806Z,33.22
2017-12-01T01:35:09.896Z,33.33
2017-12-01T01:37:39.158Z,31.42
2017-12-01T01:40:09.589Z,33.55
2017-12-01T01:42:39.368Z,32.47
2017-12-01T01:45:08.572Z,32.28
2017-12-01T01:47:37.530Z,29.83
2017-12-01T01:50:07.580Z,29.17
2017-12-01T01:52:38.869Z,31.48
2017-12-01T01:55:09.951Z,29.80
2017-12-01T01:57:38.947Z,29.70
2017-12-01T02:00:13.232Z,27.98
2017-12-01T02:02:42.198Z,30.55
2017-12-01T02:05:12.110Z,28.00
2017-12-01T02:07:41.886Z,30.08
2017-12-01T02:10:11.086Z,29.45
2017-12-01T02:12:40.065Z,30.83
2017-12-01T02:15:09.744Z,31.12
2017-12-01T02:17:38.825Z,28.90
2017-12-01T02:20:08.738Z,30.50
2017-12-01T02:22:37.660Z,27.90
2017-12-01T02:25:09.391Z,28.62
2017-12-01T02:27:38.429Z,27.60
2017-12-01T02:30:09.020Z,31.62
2017-12-01T02:32:38.066Z,29.40
2017-12-01T02:35:08.338Z,28.50
2017-12-01T02:37:37.535Z,27.35
2017-12-01T02:40:07.130Z,26.35
2017-12-01T02:42:36.933Z,29.58
2017-12-01T02:45:07.410Z,29.08
2017-12-01T02:47:36.442Z,28.83
2017-12-01T02:50:08.682Z,29.90
2017-12-01T02:52:37.985Z,31.65
2017-12-01T02:55:08.482Z,29.70
2017-12-01T02:57:37.513Z,28.65
2017-12-01T03:00:09.358Z,28.95
2017-12-01T03:02:38.322Z,28.77
2017-12-01T03:05:10.739Z,28.15
2017-12-01T03:07:40.125Z,27.25
2017-12-01T03:10:09.304Z,25.67
2017-12-01T03:12:38.323Z,26.17
2017-12-01T03:15:11.141Z,25.40
2017-12-01T03:17:40.953Z,26.65
2017-12-01T03:20:10.383Z,27.48
2017-12-01T03:22:39.757Z,27.58
2017-12-01T03:25:09.894Z,26.83
2017-12-01T03:27:38.953Z,26.30
2017-12-01T03:30:10.647Z,26.83
2017-12-01T03:32:39.855Z,25.20
2017-12-01T03:35:09.418Z,26.55
2017-12-01T03:37:38.846Z,25.98
2017-12-01T03:40:08.878Z,27.92
2017-12-01T03:42:37.969Z,28.15
2017-12-01T03:45:08.290Z,28.15
2017-12-01T03:47:37.616Z,27.05
2017-12-01T03:50:08.443Z,26.45
2017-12-01T03:52:37.383Z,25.27
2017-12-01T03:55:08.783Z,26.05
2017-12-01T03:57:37.780Z,26.80
2017-12-01T04:00:14.530Z,26.85
2017-12-01T04:02:43.622Z,25.67
2017-12-01T04:05:13.605Z,26.23
2017-12-01T04:07:42.644Z,28.45
2017-12-01T04:10:12.168Z,25.37
2017-12-01T04:12:41.224Z,26.15
2017-12-01T04:15:12.193Z,27.98
2017-12-01T04:17:41.135Z,27.62
2017-12-01T04:20:11.201Z,28.27
2017-12-01T04:22:40.273Z,29.33
2017-12-01T04:25:10.366Z,28.58
2017-12-01T04:27:39.409Z,30.83
2017-12-01T04:30:11.157Z,29.83
2017-12-01T04:32:40.382Z,30.52
2017-12-01T04:35:09.929Z,28.42
2017-12-01T04:37:39.746Z,29.33
2017-12-01T04:40:09.873Z,27.73
2017-12-01T04:42:39.686Z,30.37
2017-12-01T04:45:10.406Z,30.37
2017-12-01T04:47:40.437Z,29.25
2017-12-01T04:50:10.340Z,31.30
2017-12-01T04:52:39.328Z,29.08
2017-12-01T04:55:08.730Z,31.75
2017-12-01T04:57:38.542Z,30.05
2017-12-01T05:00:13.982Z,31.90
2017-12-01T05:02:44.980Z,30.45
2017-12-01T05:05:14.098Z,30.95
2017-12-01T05:07:43.122Z,31.50
2017-12-01T05:10:13.044Z,30.77
2017-12-01T05:12:42.961Z,32.95
2017-12-01T05:15:13.516Z,30.48
2017-12-01T05:17:42.545Z,29.75
2017-12-01T05:20:11.955Z,27.62
2017-12-01T05:22:41.078Z,28.92
2017-12-01T05:25:17.226Z,29.05
2017-12-01T05:27:46.300Z,27.80
2017-12-01T05:30:16.746Z,27.65
2017-12-01T05:32:46.002Z,30.50
2017-12-01T05:35:15.257Z,31.42
2017-12-01T05:37:45.357Z,31.40
2017-12-01T05:40:15.616Z,29.95
2017-12-01T05:42:44.677Z,31.62
2017-12-01T05:45:15.006Z,29.02
2017-12-01T05:47:45.199Z,31.77
2017-12-01T05:50:15.312Z,31.90
2017-12-01T05:52:44.336Z,33.55
2017-12-01T05:55:14.437Z,31.33
2017-12-01T05:57:43.792Z,30.75
2017-12-01T06:00:14.278Z,31.77
2017-12-01T06:02:43.376Z,28.77
2017-12-01T06:05:13.012Z,30.15
2017-12-01T06:07:42.877Z,31.10
2017-12-01T06:10:12.896Z,27.65
2017-12-01T06:12:42.724Z,29.23
2017-12-01T06:16:31.085Z,28.75
2017-12-01T06:19:00.166Z,29.37
2017-12-01T06:21:30.281Z,28.10
2017-12-01T06:23:59.328Z,30.27
2017-12-01T06:26:29.628Z,27.05
2017-12-01T06:29:04.670Z,26.85
2017-12-01T06:31:34.428Z,29.12
2017-12-01T06:34:05.754Z,28.73
2017-12-01T06:36:35.510Z,28.55
2017-12-01T06:39:05.185Z,33.17
2017-12-01T06:41:34.405Z,30.33
2017-12-01T06:44:03.838Z,29.92
2017-12-01T06:46:33.855Z,28.50
2017-12-01T06:49:06.871Z,27.52
2017-12-01T06:51:36.820Z,29.92
2017-12-01T06:54:08.487Z,33.17
2017-12-01T06:56:37.764Z,29.60
2017-12-01T06:59:07.615Z,31.67
2017-12-01T07:01:36.640Z,26.10
2017-12-01T07:04:06.207Z,29.25
2017-12-01T07:06:35.381Z,28.73
2017-12-01T07:09:05.093Z,29.17
2017-12-01T07:11:34.117Z,27.90
2017-12-01T07:14:03.096Z,29.80
2017-12-01T07:16:32.045Z,29.83
2017-12-01T07:19:00.991Z,28.87
2017-12-01T07:21:30.589Z,30.48
2017-12-01T07:23:59.566Z,30.52
2017-12-01T07:27:35.482Z,31.75
2017-12-01T07:30:16.576Z,27.70
2017-12-01T07:32:45.512Z,30.70
2017-12-01T07:35:14.994Z,29.20
2017-12-01T07:37:44.022Z,29.02
2017-12-01T07:40:13.594Z,29.27
2017-12-01T07:42:43.527Z,33.10
2017-12-01T07:45:17.936Z,32.42
2017-12-01T07:47:47.018Z,31.92
2017-12-01T07:50:17.944Z,32.13
2017-12-01T07:52:47.195Z,33.83
2017-12-01T07:55:16.325Z,32.45
2017-12-01T07:57:46.104Z,32.75
2017-12-01T08:00:20.201Z,31.12
2017-12-01T08:02:49.330Z,35.15
2017-12-01T08:05:19.427Z,34.65
2017-12-01T08:07:48.525Z,33.72
2017-12-01T08:10:17.934Z,35.60
2017-12-01T08:12:47.875Z,34.55
2017-12-01T08:15:18.873Z,33.63
2017-12-01T08:17:48.041Z,34.00
2017-12-01T08:20:21.472Z,32.53
2017-12-01T08:22:53.965Z,33.70
2017-12-01T08:25:25.800Z,32.83
2017-12-01T08:27:54.940Z,32.70
2017-12-01T08:30:25.783Z,32.97
2017-12-01T08:32:54.944Z,34.47
2017-12-01T08:35:24.940Z,34.20
2017-12-01T08:37:55.346Z,31.02
2017-12-01T08:40:25.447Z,31.37
2017-12-01T08:43:01.443Z,32.20
2017-12-01T08:45:31.224Z,30.02
2017-12-01T08:48:00.226Z,32.35
2017-12-01T08:50:30.193Z,33.72
2017-12-01T08:52:59.853Z,33.10
2017-12-01T08:55:28.925Z,29.83
2017-12-01T08:57:58.794Z,30.92
2017-12-01T09:00:28.113Z,29.85
2017-12-01T09:02:57.226Z,31.70
2017-12-01T09:05:27.899Z,29.30
2017-12-01T09:07:56.874Z,30.33
2017-12-01T09:10:26.947Z,30.42
2017-12-01T09:12:56.663Z,29.50
2017-12-01T09:15:28.465Z,31.10
2017-12-01T09:17:57.559Z,36.67
2017-12-01T09:20:28.319Z,35.22
2017-12-01T09:22:57.454Z,34.03
2017-12-01T09:25:27.404Z,39.08
2017-12-01T09:27:56.493Z,35.55
2017-12-01T09:30:26.785Z,29.55
2017-12-01T09:33:22.475Z,28.65
2017-12-01T09:35:52.285Z,27.70
2017-12-01T09:39:24.802Z,28.62
2017-12-01T09:41:54.174Z,27.35
2017-12-01T09:44:24.301Z,25.48
2017-12-01T09:46:54.237Z,26.87
2017-12-01T09:49:23.993Z,25.50
2017-12-01T09:51:52.955Z,26.70
2017-12-01T09:54:25.784Z,28.48
2017-12-01T09:56:55.148Z,27.65
2017-12-01T09:59:26.344Z,26.85
2017-12-01T10:01:56.180Z,26.70
2017-12-01T10:04:27.078Z,22.00
2017-12-01T10:06:56.046Z,27.27
2017-12-01T10:09:25.819Z,28.25
2017-12-01T10:11:56.056Z,31.92
2017-12-01T10:14:25.123Z,26.60
2017-12-01T10:16:55.081Z,29.08
2017-12-01T10:19:24.160Z,26.83
2017-12-01T10:21:54.173Z,26.08
2017-12-01T10:24:23.236Z,26.73
2017-12-01T10:26:54.458Z,24.25
2017-12-01T10:29:24.651Z,24.15
2017-12-01T10:31:54.176Z,25.52
2017-12-01T10:34:23.273Z,27.13
2017-12-01T10:36:57.673Z,25.05
2017-12-01T10:39:27.613Z,26.55
2017-12-01T10:41:56.630Z,22.65
2017-12-01T10:44:26.453Z,25.75
2017-12-01T10:46:56.586Z,25.98
2017-12-01T10:49:28.197Z,27.25
2017-12-01T10:51:57.518Z,23.85
2017-12-01T10:54:27.307Z,24.58
2017-12-01T10:56:57.240Z,25.92
2017-12-01T10:59:27.198Z,24.42
2017-12-01T11:01:57.357Z,24.50
2017-12-01T11:04:26.395Z,26.60
2017-12-01T11:06:56.137Z,24.90
2017-12-01T11:09:25.312Z,22.70
2017-12-01T11:11:55.147Z,24.17
2017-12-01T11:14:25.252Z,21.12
2017-12-01T11:16:55.074Z,18.45
2017-12-01T11:19:24.251Z,20.25
2017-12-01T11:21:53.279Z,20.75
2017-12-01T11:24:22.361Z,16.37
2017-12-01T11:26:52.119Z,15.10
2017-12-01T11:29:23.940Z,14.73
2017-12-01T11:31:53.031Z,16.45
2017-12-01T11:34:24.059Z,15.32
2017-12-01T11:36:53.223Z,14.90
2017-12-01T11:39:23.218Z,13.02
2017-12-01T11:41:52.984Z,11.07
2017-12-01T11:44:22.036Z,11.20
2017-12-01T11:46:51.992Z,12.52
2017-12-01T11:49:22.398Z,13.07
2017-12-01T11:51:54.405Z,11.45
2017-12-01T11:54:25.054Z,13.48
2017-12-01T11:56:54.056Z,14.48
2017-12-01T11:59:23.911Z,16.58
2017-12-01T12:01:53.209Z,12.85
2017-12-01T12:04:23.315Z,17.00
2017-12-01T12:06:53.935Z,13.70
2017-12-01T12:09:24.249Z,14.95
2017-12-01T12:11:54.565Z,16.83
2017-12-01T12:14:38.103Z,15.73
2017-12-01T12:17:10.014Z,16.10
2017-12-01T12:19:39.224Z,13.93
2017-12-01T12:22:09.633Z,13.88
2017-12-01T12:24:40.365Z,14.80
2017-12-01T12:27:13.147Z,16.00
2017-12-01T12:29:43.066Z,15.35
2017-12-01T12:32:15.646Z,15.55
2017-12-01T12:34:44.731Z,17.02
2017-12-01T12:37:16.048Z,16.12
2017-12-01T12:39:47.631Z,13.60
2017-12-01T12:42:16.920Z,10.60
2017-12-01T12:44:46.705Z,10.90
2017-12-01T12:47:16.960Z,13.30
2017-12-01T12:49:46.935Z,11.85
2017-12-01T12:52:21.492Z,12.43
2017-12-01T12:54:52.435Z,12.43
2017-12-01T12:57:29.418Z,11.55
2017-12-01T12:59:58.649Z,12.82
2017-12-01T13:02:29.086Z,13.73
2017-12-01T13:04:59.339Z,14.13
2017-12-01T13:07:28.995Z,14.32
2017-12-01T13:09:59.330Z,12.60
2017-12-01T13:12:36.405Z,13.30
2017-12-01T13:15:15.238Z,12.15
2017-12-01T13:17:47.866Z,11.57
2017-12-01T13:20:21.860Z,12.55
2017-12-01T13:22:51.420Z,10.90
2017-12-01T13:25:24.487Z,11.02
2017-12-01T13:27:56.945Z,11.95
2017-12-01T13:30:27.963Z,15.40
2017-12-01T13:32:58.320Z,14.38
2017-12-01T13:35:28.481Z,14.15
2017-12-01T13:37:58.598Z,11.57
2017-12-01T13:40:29.807Z,10.30
2017-12-01T13:43:00.989Z,10.05
2017-12-01T13:45:31.031Z,10.60
2017-12-01T13:48:00.576Z,10.60
2017-12-01T13:50:33.947Z,10.35
2017-12-01T13:53:05.274Z,8.80
2017-12-01T13:55:34.695Z,9.20
2017-12-01T13:58:04.665Z,11.45
2017-12-01T14:00:36.221Z,11.35
2017-12-01T14:03:11.372Z,9.00
2017-12-01T14:05:40.804Z,9.52
2017-12-01T14:08:11.154Z,9.60
2017-12-01T14:10:42.971Z,10.52
2017-12-01T14:13:15.856Z,10.20
2017-12-01T14:15:47.665Z,10.15
2017-12-01T14:18:17.651Z,11.23
2017-12-01T14:20:47.010Z,10.60
2017-12-01T14:23:17.083Z,11.75
2017-12-01T14:25:46.930Z,11.57
2017-12-01T14:28:17.061Z,11.23
2017-12-01T14:30:47.789Z,11.18
2017-12-01T14:33:18.141Z,11.25
2017-12-01T14:35:47.282Z,11.80
2017-12-01T14:38:16.307Z,12.48
2017-12-01T14:40:48.240Z,11.70
2017-12-01T14:43:18.209Z,9.88
2017-12-01T14:45:47.330Z,12.27
2017-12-01T14:48:17.125Z,11.07
2017-12-01T14:50:50.168Z,10.65
2017-12-01T14:53:19.520Z,10.95
2017-12-01T14:55:49.712Z,14.63
2017-12-01T14:58:18.814Z,11.90
2017-12-01T15:00:51.075Z,13.40
2017-12-01T15:03:20.357Z,12.43
2017-12-01T15:05:49.881Z,14.73
2017-12-01T15:08:18.992Z,12.48
2017-12-01T15:10:51.070Z,12.48
2017-12-01T15:13:20.515Z,11.40
2017-12-01T15:15:51.862Z,11.35
2017-12-01T15:18:21.029Z,11.45
2017-12-01T15:20:51.626Z,11.82
2017-12-01T15:23:21.554Z,10.18
2017-12-01T15:25:52.807Z,11.95
2017-12-01T15:28:22.607Z,13.00
2017-12-01T15:30:52.155Z,11.60
2017-12-01T15:33:21.375Z,11.98
2017-12-01T15:35:50.529Z,12.88
2017-12-01T15:38:20.998Z,11.55
2017-12-01T15:40:50.775Z,11.20
2017-12-01T15:43:20.910Z,12.27
2017-12-01T15:45:51.135Z,12.18
2017-12-01T15:51:54.234Z,14.80
2017-12-01T15:54:23.505Z,15.77
2017-12-01T15:56:52.647Z,14.55
2017-12-01T15:59:22.824Z,14.93
2017-12-01T16:01:52.764Z,15.25
2017-12-01T16:04:23.234Z,12.43
2017-12-01T16:06:53.406Z,13.73
2017-12-01T16:09:27.556Z,13.48
2017-12-01T16:11:57.527Z,13.95
2017-12-01T16:14:29.874Z,14.82
2017-12-01T16:17:00.016Z,15.00
2017-12-01T16:19:30.071Z,14.50
2017-12-01T16:22:00.562Z,14.50
2017-12-01T16:24:30.698Z,14.52
2017-12-01T16:27:00.674Z,15.93
2017-12-01T16:29:29.899Z,15.27
2017-12-01T16:32:00.186Z,14.48
2017-12-01T16:34:33.355Z,14.65
2017-12-01T16:37:02.573Z,15.63
2017-12-01T16:39:31.807Z,15.25
2017-12-01T16:42:13.058Z,15.95
2017-12-01T16:44:42.256Z,17.80
2017-12-01T16:47:11.587Z,20.62
2017-12-01T16:49:40.957Z,23.87
2017-12-01T16:52:11.441Z,20.25
2017-12-01T16:54:40.714Z,18.77
2017-12-01T16:57:10.777Z,17.75
2017-12-01T16:59:41.082Z,17.50
2017-12-01T17:02:12.277Z,18.12
2017-12-01T17:04:41.651Z,16.23
2017-12-01T17:07:18.485Z,19.02
2017-12-01T17:09:51.509Z,18.17
2017-12-01T17:12:23.857Z,16.25
2017-12-01T17:14:54.681Z,18.05
2017-12-01T17:17:24.437Z,16.30
2017-12-01T17:19:53.596Z,16.77
2017-12-01T17:22:23.912Z,17.35
2017-12-01T17:24:53.716Z,17.80
2017-12-01T17:27:23.706Z,16.37
2017-12-01T17:29:54.266Z,17.45
2017-12-01T17:32:24.226Z,18.75
2017-12-01T17:34:53.697Z,15.43
2017-12-01T17:37:25.198Z,16.52
2017-12-01T17:39:54.774Z,17.60
2017-12-01T17:42:26.165Z,16.37
2017-12-01T17:44:55.495Z,18.45
2017-12-01T17:47:26.178Z,18.58
2017-12-01T17:49:56.055Z,17.23
2017-12-01T17:52:26.053Z,16.05
2017-12-01T17:54:55.863Z,16.45
2017-12-01T17:57:26.879Z,18.90
2017-12-01T17:59:56.734Z,21.02
2017-12-01T18:02:27.743Z,19.60
2017-12-01T18:04:57.597Z,21.45
2017-12-01T18:07:28.310Z,20.40
2017-12-01T18:09:58.218Z,19.85
2017-12-01T18:12:28.486Z,19.40
2017-12-01T18:14:58.375Z,20.70
2017-12-01T18:17:28.381Z,19.30
2017-12-01T18:19:58.979Z,20.95
2017-12-01T18:22:28.350Z,24.52
2017-12-01T18:24:57.514Z,23.70
2017-12-01T18:27:26.886Z,24.23
2017-12-01T18:29:58.287Z,23.65
2017-12-01T18:32:30.999Z,22.30
2017-12-01T18:35:01.179Z,25.40
2017-12-01T18:37:38.359Z,25.02
2017-12-01T18:40:16.538Z,23.87
2017-12-01T18:42:52.193Z,22.45
2017-12-01T18:45:24.013Z,24.10
2017-12-01T18:47:53.131Z,24.30
2017-12-01T18:50:29.008Z,25.70
2017-12-01T18:53:00.063Z,25.62
2017-12-01T18:55:33.591Z,24.67
2017-12-01T18:58:22.109Z,24.17
2017-12-01T19:00:54.826Z,25.27
2017-12-01T19:03:24.974Z,25.12
2017-12-01T19:05:55.357Z,24.27
2017-12-01T19:08:25.802Z,23.50
2017-12-01T19:10:58.147Z,23.52
2017-12-01T19:13:29.382Z,21.75
2017-12-01T19:16:11.895Z,22.20
2017-12-01T19:18:44.857Z,23.00
2017-12-01T19:21:19.978Z,22.48
2017-12-01T19:23:50.206Z,21.83
2017-12-01T19:26:22.439Z,20.73
2017-12-01T19:28:53.721Z,22.75
2017-12-01T19:31:31.394Z,22.27
2017-12-01T19:34:02.030Z,23.62
2017-12-01T19:36:32.724Z,24.50
2017-12-01T19:39:09.277Z,22.15
2017-12-01T19:41:40.809Z,23.67
2017-12-01T19:44:11.437Z,24.60
2017-12-01T19:46:42.308Z,22.42
2017-12-01T19:49:13.333Z,21.30
2017-12-01T19:51:51.440Z,23.35
2017-12-01T19:54:21.747Z,22.13
2017-12-01T19:56:54.563Z,22.25
2017-12-01T19:59:23.726Z,22.55
2017-12-01T20:01:52.918Z,20.23
2017-12-01T20:07:08.144Z,22.55
2017-12-01T20:09:37.547Z,22.67
2017-12-01T20:12:07.955Z,25.15
2017-12-01T20:14:39.575Z,21.87
2017-12-01T20:17:17.263Z,20.48
2017-12-01T20:19:48.983Z,21.10
2017-12-01T20:22:19.069Z,24.02
2017-12-01T20:24:50.406Z,23.05
2017-12-01T20:27:24.699Z,23.12
2017-12-01T20:29:53.889Z,23.50
2017-12-01T20:32:23.099Z,22.37
2017-12-01T20:34:59.544Z,21.98
2017-12-01T20:37:29.649Z,20.95
2017-12-01T20:39:59.275Z,21.42
2017-12-01T20:42:28.974Z,22.52
2017-12-01T20:44:58.894Z,21.62
2017-12-01T20:47:28.903Z,21.50
2017-12-01T20:49:58.373Z,24.37
2017-12-01T20:52:29.029Z,24.05
2017-12-01T20:54:59.094Z,22.23
2017-12-01T20:57:30.622Z,23.90
2017-12-01T21:00:01.022Z,20.10
2017-12-01T21:02:31.504Z,22.62
2017-12-01T21:05:01.429Z,24.83
2017-12-01T21:07:33.256Z,26.15
2017-12-01T21:12:39.149Z,20.88
2017-12-01T21:15:18.209Z,19.52
2017-12-01T21:17:52.568Z,20.77
2017-12-01T21:20:27.516Z,24.30
2017-12-01T21:23:04.136Z,24.55
2017-12-01T21:25:34.189Z,23.42
2017-12-01T21:28:10.278Z,23.85
2017-12-01T21:30:44.289Z,23.77
2017-12-01T21:33:13.517Z,24.23
2017-12-01T21:35:43.719Z,23.00
2017-12-01T21:38:13.159Z,24.30
2017-12-01T21:40:42.495Z,23.92
2017-12-01T21:43:11.600Z,23.90
2017-12-01T21:45:41.023Z,23.30
2017-12-01T21:48:10.220Z,24.02
2017-12-01T21:50:39.671Z,24.27
2017-12-01T21:53:09.678Z,24.60
2017-12-01T21:55:40.713Z,21.80
2017-12-01T21:58:11.254Z,22.37
2017-12-01T22:00:42.539Z,21.87
2017-12-01T22:03:11.738Z,23.00
2017-12-01T22:05:41.073Z,22.10
2017-12-01T22:08:10.889Z,22.08
2017-12-01T22:10:42.056Z,21.30
2017-12-01T22:13:11.152Z,20.75
2017-12-01T22:15:40.370Z,21.10
2017-12-01T22:18:10.321Z,23.58
2017-12-01T22:20:41.847Z,25.02
2017-12-01T22:23:11.580Z,25.70
2017-12-01T22:25:41.612Z,22.52
2017-12-01T22:28:12.972Z,22.15
2017-12-01T22:30:42.925Z,21.77
2017-12-01T22:33:12.275Z,21.20
2017-12-01T22:35:42.544Z,22.33
2017-12-01T22:38:12.527Z,22.23
2017-12-01T22:41:12.993Z,21.40
2017-12-01T22:43:42.077Z,23.12
2017-12-01T22:46:12.002Z,22.40
2017-12-01T22:48:42.182Z,23.67
2017-12-01T22:51:12.178Z,24.67
2017-12-01T22:53:42.218Z,22.17
2017-12-01T22:56:11.573Z,22.98
2017-12-01T22:58:40.594Z,22.62
2017-12-01T23:01:10.967Z,24.00
2017-12-01T23:03:42.030Z,23.65
2017-12-01T23:06:12.357Z,22.15
2017-12-01T23:08:42.446Z,22.73
2017-12-01T23:11:11.769Z,23.42
2017-12-01T23:13:41.105Z,22.90
2017-12-01T23:16:11.283Z,23.27
2017-12-01T23:18:40.868Z,24.30
2017-12-01T23:21:09.909Z,24.90
2017-12-01T23:23:39.004Z,25.08
2017-12-01T23:26:08.280Z,22.33
2017-12-01T23:28:37.220Z,26.77
2017-12-01T23:31:07.069Z,24.60
2017-12-01T23:33:36.181Z,25.08
2017-12-01T23:36:06.731Z,23.87
2017-12-01T23:38:35.684Z,23.35
2017-12-01T23:41:04.985Z,21.90
2017-12-01T23:43:34.812Z,24.87
2017-12-01T23:46:03.858Z,22.42
2017-12-01T23:48:33.594Z,22.65
2017-12-01T23:51:05.329Z,22.23
2017-12-01T23:53:35.687Z,24.60
2017-12-01T23:56:04.821Z,23.95
2017-12-01T23:58:33.806Z,22.27
